sensor_id;sensor_type;location;lat;lon;timestamp;pressure;altitude;pressure_sealevel;temperature;humidity
8320;BME280;4197;42.130;24.746;2023-02-18T00:01:40;100232.28;;;7.34;49.85
8320;BME280;4197;42.130;24.746;2023-02-18T00:04:08;100227.53;;;7.31;49.49
8320;BME280;4197;42.130;24.746;2023-02-18T00:06:38;100225.81;;;7.35;49.36
8320;BME280;4197;42.130;24.746;2023-02-18T00:09:06;100223.44;;;7.42;49.24
8320;BME280;4197;42.130;24.746;2023-02-18T00:11:36;100229.81;;;7.46;48.73
8320;BME280;4197;42.130;24.746;2023-02-18T00:14:07;100225.19;;;7.47;49.14
8320;BME280;4197;42.130;24.746;2023-02-18T00:16:35;100224.19;;;7.34;49.01
8320;BME280;4197;42.130;24.746;2023-02-18T00:19:06;100215.97;;;7.39;48.95
8320;BME280;4197;42.130;24.746;2023-02-18T00:21:35;100214.88;;;7.40;48.92
8320;BME280;4197;42.130;24.746;2023-02-18T00:24:06;100210.72;;;7.43;48.63
8320;BME280;4197;42.130;24.746;2023-02-18T00:26:35;100210.06;;;7.37;48.74
8320;BME280;4197;42.130;24.746;2023-02-18T00:29:03;100210.44;;;7.44;48.24
8320;BME280;4197;42.130;24.746;2023-02-18T00:31:33;100209.94;;;7.51;48.03
8320;BME280;4197;42.130;24.746;2023-02-18T00:34:03;100210.13;;;7.54;47.78
8320;BME280;4197;42.130;24.746;2023-02-18T00:36:31;100204.91;;;7.58;47.76
8320;BME280;4197;42.130;24.746;2023-02-18T00:39:01;100194.41;;;7.56;47.58
8320;BME280;4197;42.130;24.746;2023-02-18T00:41:32;100191.41;;;7.67;47.22
8320;BME280;4197;42.130;24.746;2023-02-18T00:44:01;100183.94;;;7.72;47.28
8320;BME280;4197;42.130;24.746;2023-02-18T00:46:30;100181.41;;;7.67;47.51
8320;BME280;4197;42.130;24.746;2023-02-18T00:48:58;100185.06;;;7.63;47.69
8320;BME280;4197;42.130;24.746;2023-02-18T00:51:27;100168.88;;;7.63;47.90
8320;BME280;4197;42.130;24.746;2023-02-18T00:53:55;100167.13;;;7.67;47.64
8320;BME280;4197;42.130;24.746;2023-02-18T00:56:23;100170.31;;;7.69;47.70
8320;BME280;4197;42.130;24.746;2023-02-18T00:58:53;100161.56;;;7.72;47.66
8320;BME280;4197;42.130;24.746;2023-02-18T01:01:21;100155.69;;;7.61;47.90
8320;BME280;4197;42.130;24.746;2023-02-18T01:03:50;100152.03;;;7.66;47.98
8320;BME280;4197;42.130;24.746;2023-02-18T01:06:18;100143.78;;;7.71;47.85
8320;BME280;4197;42.130;24.746;2023-02-18T01:08:48;100144.09;;;7.60;48.04
8320;BME280;4197;42.130;24.746;2023-02-18T01:11:16;100134.38;;;7.42;48.40
8320;BME280;4197;42.130;24.746;2023-02-18T01:13:44;100138.34;;;7.27;49.17
8320;BME280;4197;42.130;24.746;2023-02-18T01:16:14;100136.25;;;7.15;49.40
8320;BME280;4197;42.130;24.746;2023-02-18T01:18:42;100133.38;;;7.12;49.88
8320;BME280;4197;42.130;24.746;2023-02-18T01:21:11;100127.19;;;7.11;49.89
8320;BME280;4197;42.130;24.746;2023-02-18T01:23:40;100133.97;;;7.00;50.24
8320;BME280;4197;42.130;24.746;2023-02-18T01:26:09;100134.00;;;7.09;50.36
8320;BME280;4197;42.130;24.746;2023-02-18T01:28:38;100119.59;;;7.13;50.12
8320;BME280;4197;42.130;24.746;2023-02-18T01:31:08;100127.38;;;7.24;49.59
8320;BME280;4197;42.130;24.746;2023-02-18T01:33:38;100128.16;;;7.15;49.71
8320;BME280;4197;42.130;24.746;2023-02-18T01:36:08;100123.06;;;7.05;50.39
8320;BME280;4197;42.130;24.746;2023-02-18T01:38:37;100115.13;;;7.09;50.28
8320;BME280;4197;42.130;24.746;2023-02-18T01:41:06;100112.13;;;7.10;49.96
8320;BME280;4197;42.130;24.746;2023-02-18T01:43:35;100105.31;;;7.13;49.94
8320;BME280;4197;42.130;24.746;2023-02-18T01:46:07;100109.28;;;7.07;49.91
8320;BME280;4197;42.130;24.746;2023-02-18T01:48:43;100106.72;;;7.02;50.21
8320;BME280;4197;42.130;24.746;2023-02-18T01:51:16;100104.16;;;6.97;50.30
8320;BME280;4197;42.130;24.746;2023-02-18T01:53:50;100099.66;;;6.83;50.75
8320;BME280;4197;42.130;24.746;2023-02-18T01:56:23;100109.63;;;6.65;51.42
8320;BME280;4197;42.130;24.746;2023-02-18T01:58:54;100114.28;;;6.51;51.90
8320;BME280;4197;42.130;24.746;2023-02-18T02:01:25;100111.91;;;6.50;52.23
8320;BME280;4197;42.130;24.746;2023-02-18T02:03:55;100107.53;;;6.62;51.92
8320;BME280;4197;42.130;24.746;2023-02-18T02:06:26;100102.56;;;6.47;52.18
8320;BME280;4197;42.130;24.746;2023-02-18T02:08:56;100107.91;;;6.38;52.85
8320;BME280;4197;42.130;24.746;2023-02-18T02:11:38;100104.94;;;6.48;52.61
8320;BME280;4197;42.130;24.746;2023-02-18T02:14:30;100107.06;;;6.60;52.13
8320;BME280;4197;42.130;24.746;2023-02-18T02:17:03;100113.69;;;6.54;52.21
8320;BME280;4197;42.130;24.746;2023-02-18T02:23:01;100118.09;;;6.50;52.56
8320;BME280;4197;42.130;24.746;2023-02-18T02:25:53;100119.25;;;6.58;52.04
8320;BME280;4197;42.130;24.746;2023-02-18T02:28:42;100124.00;;;6.61;51.67
8320;BME280;4197;42.130;24.746;2023-02-18T02:31:40;100124.31;;;6.59;51.92
8320;BME280;4197;42.130;24.746;2023-02-18T02:37:29;100115.25;;;6.55;52.04
8320;BME280;4197;42.130;24.746;2023-02-18T02:40:15;100113.50;;;6.51;51.96
8320;BME280;4197;42.130;24.746;2023-02-18T02:42:57;100121.25;;;6.43;52.89
8320;BME280;4197;42.130;24.746;2023-02-18T02:45:38;100129.13;;;6.40;52.71
8320;BME280;4197;42.130;24.746;2023-02-18T02:48:14;100124.34;;;6.37;52.93
8320;BME280;4197;42.130;24.746;2023-02-18T02:50:51;100129.31;;;6.43;52.55
8320;BME280;4197;42.130;24.746;2023-02-18T02:53:25;100127.66;;;6.34;52.55
8320;BME280;4197;42.130;24.746;2023-02-18T02:55:54;100131.66;;;6.36;52.54
8320;BME280;4197;42.130;24.746;2023-02-18T02:58:23;100131.56;;;6.50;52.42
8320;BME280;4197;42.130;24.746;2023-02-18T03:01:04;100127.16;;;6.54;51.68
8320;BME280;4197;42.130;24.746;2023-02-18T03:03:53;100125.91;;;6.60;51.59
8320;BME280;4197;42.130;24.746;2023-02-18T03:06:36;100127.19;;;6.63;51.27
8320;BME280;4197;42.130;24.746;2023-02-18T03:09:12;100125.16;;;6.68;50.97
8320;BME280;4197;42.130;24.746;2023-02-18T03:11:50;100120.72;;;6.73;50.96
8320;BME280;4197;42.130;24.746;2023-02-18T03:14:27;100125.31;;;6.72;50.92
8320;BME280;4197;42.130;24.746;2023-02-18T03:16:59;100109.63;;;6.65;50.73
8320;BME280;4197;42.130;24.746;2023-02-18T03:19:32;100107.56;;;6.71;50.43
8320;BME280;4197;42.130;24.746;2023-02-18T03:22:05;100109.16;;;6.72;50.48
8320;BME280;4197;42.130;24.746;2023-02-18T03:24:39;100100.91;;;6.68;50.42
8320;BME280;4197;42.130;24.746;2023-02-18T03:27:12;100094.75;;;6.77;50.06
8320;BME280;4197;42.130;24.746;2023-02-18T03:29:44;100096.94;;;6.75;50.20
8320;BME280;4197;42.130;24.746;2023-02-18T03:32:16;100097.91;;;6.79;49.78
8320;BME280;4197;42.130;24.746;2023-02-18T03:34:50;100097.91;;;6.79;49.64
8320;BME280;4197;42.130;24.746;2023-02-18T03:37:20;100098.41;;;6.81;49.17
8320;BME280;4197;42.130;24.746;2023-02-18T03:39:54;100091.28;;;6.85;49.15
8320;BME280;4197;42.130;24.746;2023-02-18T03:42:25;100101.44;;;6.88;49.16
8320;BME280;4197;42.130;24.746;2023-02-18T03:44:54;100099.56;;;6.97;48.76
8320;BME280;4197;42.130;24.746;2023-02-18T03:47:23;100096.56;;;6.99;48.46
8320;BME280;4197;42.130;24.746;2023-02-18T03:49:51;100088.00;;;7.14;47.98
8320;BME280;4197;42.130;24.746;2023-02-18T03:52:20;100098.16;;;7.17;47.68
8320;BME280;4197;42.130;24.746;2023-02-18T03:54:49;100101.06;;;7.38;46.79
8320;BME280;4197;42.130;24.746;2023-02-18T03:57:17;100109.31;;;7.50;46.44
8320;BME280;4197;42.130;24.746;2023-02-18T03:59:46;100115.03;;;7.57;46.25
8320;BME280;4197;42.130;24.746;2023-02-18T04:02:14;100114.56;;;7.55;46.20
8320;BME280;4197;42.130;24.746;2023-02-18T04:04:42;100126.94;;;7.56;46.24
8320;BME280;4197;42.130;24.746;2023-02-18T04:07:10;100122.34;;;7.66;46.17
8320;BME280;4197;42.130;24.746;2023-02-18T04:09:38;100121.06;;;7.63;46.20
8320;BME280;4197;42.130;24.746;2023-02-18T04:12:07;100122.00;;;7.58;46.47
8320;BME280;4197;42.130;24.746;2023-02-18T04:14:36;100122.50;;;7.52;46.70
8320;BME280;4197;42.130;24.746;2023-02-18T04:17:05;100131.38;;;7.52;46.93
8320;BME280;4197;42.130;24.746;2023-02-18T04:19:33;100129.63;;;7.48;47.01
8320;BME280;4197;42.130;24.746;2023-02-18T04:22:01;100124.06;;;7.53;46.71
8320;BME280;4197;42.130;24.746;2023-02-18T04:24:29;100132.19;;;7.53;46.47
8320;BME280;4197;42.130;24.746;2023-02-18T04:26:58;100131.53;;;7.65;46.02
8320;BME280;4197;42.130;24.746;2023-02-18T04:29:28;100146.50;;;7.79;45.52
8320;BME280;4197;42.130;24.746;2023-02-18T04:31:56;100137.91;;;7.86;45.21
8320;BME280;4197;42.130;24.746;2023-02-18T04:34:25;100139.66;;;7.82;45.29
8320;BME280;4197;42.130;24.746;2023-02-18T04:36:53;100140.28;;;7.96;44.67
8320;BME280;4197;42.130;24.746;2023-02-18T04:39:21;100148.22;;;8.01;44.57
8320;BME280;4197;42.130;24.746;2023-02-18T04:41:49;100153.63;;;8.01;44.63
8320;BME280;4197;42.130;24.746;2023-02-18T04:44:17;100154.41;;;8.02;44.52
8320;BME280;4197;42.130;24.746;2023-02-18T04:46:47;100159.19;;;8.05;44.36
8320;BME280;4197;42.130;24.746;2023-02-18T04:49:15;100154.41;;;8.11;44.33
8320;BME280;4197;42.130;24.746;2023-02-18T04:51:43;100147.44;;;8.10;44.32
8320;BME280;4197;42.130;24.746;2023-02-18T04:54:11;100149.31;;;8.09;44.35
8320;BME280;4197;42.130;24.746;2023-02-18T04:56:40;100147.72;;;8.08;44.52
8320;BME280;4197;42.130;24.746;2023-02-18T04:59:08;100137.88;;;8.03;44.70
8320;BME280;4197;42.130;24.746;2023-02-18T05:01:37;100142.66;;;8.07;44.69
8320;BME280;4197;42.130;24.746;2023-02-18T05:04:06;100137.72;;;8.09;44.72
8320;BME280;4197;42.130;24.746;2023-02-18T05:06:35;100145.38;;;8.07;44.87
8320;BME280;4197;42.130;24.746;2023-02-18T05:09:07;100145.34;;;8.24;44.14
8320;BME280;4197;42.130;24.746;2023-02-18T05:11:35;100138.16;;;8.28;44.03
8320;BME280;4197;42.130;24.746;2023-02-18T05:14:05;100139.94;;;8.24;43.73
8320;BME280;4197;42.130;24.746;2023-02-18T05:16:33;100143.41;;;8.24;43.93
8320;BME280;4197;42.130;24.746;2023-02-18T05:19:01;100145.16;;;8.29;43.88
8320;BME280;4197;42.130;24.746;2023-02-18T05:21:31;100144.38;;;8.29;43.97
8320;BME280;4197;42.130;24.746;2023-02-18T05:24:00;100141.34;;;8.30;43.70
8320;BME280;4197;42.130;24.746;2023-02-18T05:26:28;100142.47;;;8.29;43.73
8320;BME280;4197;42.130;24.746;2023-02-18T05:28:56;100141.34;;;8.30;43.66
8320;BME280;4197;42.130;24.746;2023-02-18T05:31:25;100135.63;;;8.32;43.50
8320;BME280;4197;42.130;24.746;2023-02-18T05:33:54;100136.25;;;8.37;43.47
8320;BME280;4197;42.130;24.746;2023-02-18T05:36:22;100132.28;;;8.35;43.37
8320;BME280;4197;42.130;24.746;2023-02-18T05:38:51;100130.84;;;8.46;43.47
8320;BME280;4197;42.130;24.746;2023-02-18T05:41:21;100126.84;;;8.52;42.97
8320;BME280;4197;42.130;24.746;2023-02-18T05:43:49;100121.38;;;8.69;42.20
8320;BME280;4197;42.130;24.746;2023-02-18T05:46:35;100118.84;;;8.64;42.62
8320;BME280;4197;42.130;24.746;2023-02-18T05:49:03;100127.47;;;8.58;43.08
8320;BME280;4197;42.130;24.746;2023-02-18T05:51:31;100131.75;;;8.59;42.94
8320;BME280;4197;42.130;24.746;2023-02-18T05:54:01;100135.72;;;8.61;43.00
8320;BME280;4197;42.130;24.746;2023-02-18T05:56:29;100123.63;;;8.59;42.79
8320;BME280;4197;42.130;24.746;2023-02-18T05:58:57;100125.25;;;8.60;42.92
8320;BME280;4197;42.130;24.746;2023-02-18T06:01:25;100130.56;;;8.77;42.46
8320;BME280;4197;42.130;24.746;2023-02-18T06:03:53;100132.31;;;8.82;42.26
8320;BME280;4197;42.130;24.746;2023-02-18T06:06:22;100130.06;;;8.84;42.23
8320;BME280;4197;42.130;24.746;2023-02-18T06:08:50;100134.84;;;8.87;42.31
8320;BME280;4197;42.130;24.746;2023-02-18T06:11:20;100131.44;;;8.99;41.70
8320;BME280;4197;42.130;24.746;2023-02-18T06:13:48;100131.69;;;9.06;41.79
8320;BME280;4197;42.130;24.746;2023-02-18T06:16:16;100127.22;;;9.10;41.51
8320;BME280;4197;42.130;24.746;2023-02-18T06:18:45;100132.91;;;9.17;41.17
8320;BME280;4197;42.130;24.746;2023-02-18T06:21:13;100132.72;;;9.22;41.35
8320;BME280;4197;42.130;24.746;2023-02-18T06:23:41;100134.94;;;9.29;41.18
8320;BME280;4197;42.130;24.746;2023-02-18T06:26:09;100139.81;;;9.35;40.71
8320;BME280;4197;42.130;24.746;2023-02-18T06:28:38;100130.19;;;9.47;40.57
8320;BME280;4197;42.130;24.746;2023-02-18T06:31:07;100129.44;;;9.58;40.27
8320;BME280;4197;42.130;24.746;2023-02-18T06:33:36;100127.00;;;9.66;39.79
8320;BME280;4197;42.130;24.746;2023-02-18T06:36:07;100127.91;;;9.70;39.73
8320;BME280;4197;42.130;24.746;2023-02-18T06:38:38;100139.56;;;9.70;39.94
8320;BME280;4197;42.130;24.746;2023-02-18T06:41:06;100143.00;;;9.79;39.97
8320;BME280;4197;42.130;24.746;2023-02-18T06:43:35;100134.19;;;9.82;39.94
8320;BME280;4197;42.130;24.746;2023-02-18T06:46:05;100135.25;;;9.90;39.75
8320;BME280;4197;42.130;24.746;2023-02-18T06:48:50;100138.56;;;9.96;39.18
8320;BME280;4197;42.130;24.746;2023-02-18T06:51:18;100118.91;;;9.99;39.75
8320;BME280;4197;42.130;24.746;2023-02-18T06:53:47;100123.59;;;10.11;39.55
8320;BME280;4197;42.130;24.746;2023-02-18T06:56:15;100115.38;;;10.19;39.11
8320;BME280;4197;42.130;24.746;2023-02-18T06:58:44;100103.66;;;10.27;39.02
8320;BME280;4197;42.130;24.746;2023-02-18T07:01:13;100091.03;;;10.32;38.98
8320;BME280;4197;42.130;24.746;2023-02-18T07:03:42;100093.97;;;10.39;39.26
8320;BME280;4197;42.130;24.746;2023-02-18T07:06:10;100093.66;;;10.53;39.09
8320;BME280;4197;42.130;24.746;2023-02-18T07:08:38;100092.44;;;10.62;39.06
8320;BME280;4197;42.130;24.746;2023-02-18T07:11:06;100096.28;;;10.74;38.92
8320;BME280;4197;42.130;24.746;2023-02-18T07:13:35;100103.97;;;10.84;38.52
8320;BME280;4197;42.130;24.746;2023-02-18T07:16:03;100107.59;;;11.00;38.30
8320;BME280;4197;42.130;24.746;2023-02-18T07:18:35;100112.66;;;11.14;38.14
8320;BME280;4197;42.130;24.746;2023-02-18T07:21:04;100089.78;;;11.39;37.14
8320;BME280;4197;42.130;24.746;2023-02-18T07:23:32;100078.84;;;11.52;36.31
8320;BME280;4197;42.130;24.746;2023-02-18T07:26:05;100088.88;;;11.64;36.16
8320;BME280;4197;42.130;24.746;2023-02-18T07:28:35;100087.94;;;11.72;35.60
8320;BME280;4197;42.130;24.746;2023-02-18T07:31:04;100098.34;;;11.82;36.31
8320;BME280;4197;42.130;24.746;2023-02-18T07:33:38;100091.28;;;11.93;35.83
8320;BME280;4197;42.130;24.746;2023-02-18T07:36:09;100078.00;;;12.04;35.59
8320;BME280;4197;42.130;24.746;2023-02-18T07:38:37;100068.28;;;12.19;35.35
8320;BME280;4197;42.130;24.746;2023-02-18T07:41:16;100056.09;;;12.28;35.12
8320;BME280;4197;42.130;24.746;2023-02-18T07:43:45;100056.25;;;12.36;34.73
8320;BME280;4197;42.130;24.746;2023-02-18T07:46:14;100059.63;;;12.45;34.56
8320;BME280;4197;42.130;24.746;2023-02-18T07:48:47;100064.94;;;12.41;34.58
8320;BME280;4197;42.130;24.746;2023-02-18T07:51:18;100056.13;;;12.44;34.51
8320;BME280;4197;42.130;24.746;2023-02-18T07:53:47;100054.50;;;12.43;34.52
8320;BME280;4197;42.130;24.746;2023-02-18T07:56:16;100055.75;;;12.46;34.40
8320;BME280;4197;42.130;24.746;2023-02-18T07:58:44;100046.34;;;12.43;34.49
8320;BME280;4197;42.130;24.746;2023-02-18T08:01:14;100052.25;;;12.45;34.58
8320;BME280;4197;42.130;24.746;2023-02-18T08:03:44;100053.81;;;12.46;34.73
8320;BME280;4197;42.130;24.746;2023-02-18T08:06:20;100044.16;;;12.65;33.91
8320;BME280;4197;42.130;24.746;2023-02-18T08:08:52;100046.50;;;12.82;33.66
8320;BME280;4197;42.130;24.746;2023-02-18T08:11:20;100043.75;;;12.98;33.71
8320;BME280;4197;42.130;24.746;2023-02-18T08:13:48;100044.41;;;13.11;33.38
8320;BME280;4197;42.130;24.746;2023-02-18T08:16:17;100045.16;;;13.27;33.38
8320;BME280;4197;42.130;24.746;2023-02-18T08:18:47;100051.03;;;13.29;33.20
8320;BME280;4197;42.130;24.746;2023-02-18T08:21:18;100051.78;;;13.46;32.79
8320;BME280;4197;42.130;24.746;2023-02-18T08:23:47;100041.81;;;13.53;32.84
8320;BME280;4197;42.130;24.746;2023-02-18T08:26:16;100040.44;;;13.63;32.35
8320;BME280;4197;42.130;24.746;2023-02-18T08:28:46;100045.03;;;13.59;32.30
8320;BME280;4197;42.130;24.746;2023-02-18T08:31:18;100046.59;;;13.60;33.03
8320;BME280;4197;42.130;24.746;2023-02-18T08:33:48;100050.63;;;13.66;33.38
8320;BME280;4197;42.130;24.746;2023-02-18T08:36:17;100043.31;;;13.70;33.42
8320;BME280;4197;42.130;24.746;2023-02-18T08:38:45;100027.94;;;13.81;32.87
8320;BME280;4197;42.130;24.746;2023-02-18T08:41:14;100043.59;;;14.07;32.57
8320;BME280;4197;42.130;24.746;2023-02-18T08:43:44;100052.53;;;14.27;32.36
8320;BME280;4197;42.130;24.746;2023-02-18T08:46:13;100041.47;;;14.43;31.96
8320;BME280;4197;42.130;24.746;2023-02-18T08:49:02;100038.75;;;14.43;32.02
8320;BME280;4197;42.130;24.746;2023-02-18T08:51:30;100048.78;;;14.59;31.41
8320;BME280;4197;42.130;24.746;2023-02-18T08:53:59;100042.31;;;14.70;31.09
8320;BME280;4197;42.130;24.746;2023-02-18T08:56:29;100046.13;;;14.89;30.76
8320;BME280;4197;42.130;24.746;2023-02-18T08:58:57;100059.44;;;14.94;31.07
8320;BME280;4197;42.130;24.746;2023-02-18T09:01:26;100049.34;;;14.98;31.11
8320;BME280;4197;42.130;24.746;2023-02-18T09:03:54;100047.28;;;15.18;30.72
8320;BME280;4197;42.130;24.746;2023-02-18T09:06:24;100046.38;;;15.40;30.61
8320;BME280;4197;42.130;24.746;2023-02-18T09:08:53;100050.09;;;15.55;30.11
8320;BME280;4197;42.130;24.746;2023-02-18T09:11:21;100052.09;;;15.58;30.08
8320;BME280;4197;42.130;24.746;2023-02-18T09:13:49;100054.88;;;15.66;30.15
8320;BME280;4197;42.130;24.746;2023-02-18T09:16:18;100045.09;;;15.61;30.08
8320;BME280;4197;42.130;24.746;2023-02-18T09:18:47;100039.72;;;15.68;29.77
8320;BME280;4197;42.130;24.746;2023-02-18T09:21:16;100043.25;;;15.69;29.67
8320;BME280;4197;42.130;24.746;2023-02-18T09:23:48;100034.69;;;15.74;29.67
8320;BME280;4197;42.130;24.746;2023-02-18T09:26:18;100043.78;;;15.85;29.80
8320;BME280;4197;42.130;24.746;2023-02-18T09:28:49;100043.25;;;16.10;29.36
8320;BME280;4197;42.130;24.746;2023-02-18T09:31:20;100028.06;;;16.12;29.35
8320;BME280;4197;42.130;24.746;2023-02-18T09:33:50;100032.41;;;16.17;29.03
8320;BME280;4197;42.130;24.746;2023-02-18T09:36:21;100033.91;;;16.11;29.24
8320;BME280;4197;42.130;24.746;2023-02-18T09:38:52;100036.66;;;16.11;29.22
8320;BME280;4197;42.130;24.746;2023-02-18T09:41:28;100041.69;;;16.05;29.23
8320;BME280;4197;42.130;24.746;2023-02-18T09:43:59;100051.00;;;16.00;29.23
8320;BME280;4197;42.130;24.746;2023-02-18T09:46:31;100049.53;;;16.10;29.12
8320;BME280;4197;42.130;24.746;2023-02-18T09:49:03;100047.28;;;16.19;29.01
8320;BME280;4197;42.130;24.746;2023-02-18T09:51:34;100048.66;;;16.43;28.79
8320;BME280;4197;42.130;24.746;2023-02-18T09:54:04;100036.59;;;16.51;28.77
8320;BME280;4197;42.130;24.746;2023-02-18T09:56:33;100040.22;;;16.66;28.57
8320;BME280;4197;42.130;24.746;2023-02-18T09:59:11;100041.91;;;16.78;28.20
8320;BME280;4197;42.130;24.746;2023-02-18T10:01:42;100024.00;;;16.95;28.23
8320;BME280;4197;42.130;24.746;2023-02-18T10:04:16;100028.00;;;17.08;28.13
8320;BME280;4197;42.130;24.746;2023-02-18T10:06:45;100010.00;;;17.18;28.23
8320;BME280;4197;42.130;24.746;2023-02-18T10:09:19;100003.03;;;17.28;27.75
8320;BME280;4197;42.130;24.746;2023-02-18T10:11:50;99994.03;;;17.27;27.48
8320;BME280;4197;42.130;24.746;2023-02-18T10:14:19;99980.41;;;17.52;27.17
8320;BME280;4197;42.130;24.746;2023-02-18T10:16:48;99978.47;;;17.74;27.12
8320;BME280;4197;42.130;24.746;2023-02-18T10:19:27;99974.97;;;17.77;26.61
8320;BME280;4197;42.130;24.746;2023-02-18T10:21:56;99966.72;;;17.63;26.58
8320;BME280;4197;42.130;24.746;2023-02-18T10:24:30;99967.50;;;17.74;26.48
8320;BME280;4197;42.130;24.746;2023-02-18T10:27:01;99965.59;;;17.86;26.26
8320;BME280;4197;42.130;24.746;2023-02-18T10:29:31;99961.28;;;17.95;26.12
8320;BME280;4197;42.130;24.746;2023-02-18T10:32:05;99960.13;;;18.00;26.33
8320;BME280;4197;42.130;24.746;2023-02-18T10:34:42;99951.09;;;18.03;25.89
8320;BME280;4197;42.130;24.746;2023-02-18T10:40:17;99947.97;;;17.94;25.82
8320;BME280;4197;42.130;24.746;2023-02-18T10:43:00;99945.22;;;18.04;25.98
8320;BME280;4197;42.130;24.746;2023-02-18T10:45:37;99931.09;;;18.17;25.65
8320;BME280;4197;42.130;24.746;2023-02-18T10:48:21;99927.53;;;18.23;25.29
8320;BME280;4197;42.130;24.746;2023-02-18T10:50:50;99917.75;;;18.26;25.11
8320;BME280;4197;42.130;24.746;2023-02-18T10:53:25;99911.88;;;18.20;25.17
8320;BME280;4197;42.130;24.746;2023-02-18T10:55:59;99916.56;;;18.23;25.25
8320;BME280;4197;42.130;24.746;2023-02-18T10:58:31;99919.31;;;18.38;25.49
8320;BME280;4197;42.130;24.746;2023-02-18T11:01:02;99922.84;;;18.38;25.22
8320;BME280;4197;42.130;24.746;2023-02-18T11:03:42;99909.50;;;18.44;25.46
8320;BME280;4197;42.130;24.746;2023-02-18T11:06:20;99910.66;;;18.50;26.00
8320;BME280;4197;42.130;24.746;2023-02-18T11:08:52;99913.31;;;18.79;25.44
8320;BME280;4197;42.130;24.746;2023-02-18T11:11:29;99907.44;;;18.80;25.36
8320;BME280;4197;42.130;24.746;2023-02-18T11:13:59;99912.84;;;18.98;25.41
8320;BME280;4197;42.130;24.746;2023-02-18T11:16:36;99907.00;;;18.96;25.52
8320;BME280;4197;42.130;24.746;2023-02-18T11:19:30;99891.66;;;19.02;25.42
8320;BME280;4197;42.130;24.746;2023-02-18T11:22:06;99882.66;;;18.94;25.58
8320;BME280;4197;42.130;24.746;2023-02-18T11:24:38;99887.03;;;18.78;25.55
8320;BME280;4197;42.130;24.746;2023-02-18T11:27:10;99890.56;;;18.67;25.87
8320;BME280;4197;42.130;24.746;2023-02-18T11:29:41;99881.94;;;18.72;25.77
8320;BME280;4197;42.130;24.746;2023-02-18T11:32:10;99878.81;;;18.78;25.67
8320;BME280;4197;42.130;24.746;2023-02-18T11:34:41;99879.97;;;18.87;25.35
8320;BME280;4197;42.130;24.746;2023-02-18T11:37:16;99871.63;;;19.02;25.31
8320;BME280;4197;42.130;24.746;2023-02-18T11:39:48;99874.75;;;19.04;25.04
8320;BME280;4197;42.130;24.746;2023-02-18T11:42:21;99879.50;;;18.96;25.27
8320;BME280;4197;42.130;24.746;2023-02-18T11:44:52;99866.94;;;18.95;25.33
8320;BME280;4197;42.130;24.746;2023-02-18T11:47:26;99868.53;;;18.89;25.33
8320;BME280;4197;42.130;24.746;2023-02-18T11:50:00;99866.97;;;18.91;25.26
8320;BME280;4197;42.130;24.746;2023-02-18T11:52:34;99873.25;;;18.96;25.21
8320;BME280;4197;42.130;24.746;2023-02-18T11:55:04;99873.25;;;18.96;25.19
8320;BME280;4197;42.130;24.746;2023-02-18T11:57:37;99865.81;;;18.89;25.30
8320;BME280;4197;42.130;24.746;2023-02-18T12:00:20;99864.63;;;18.93;25.20
8320;BME280;4197;42.130;24.746;2023-02-18T12:02:51;99854.72;;;19.03;25.19
8320;BME280;4197;42.130;24.746;2023-02-18T12:05:23;99851.47;;;19.23;25.00
8320;BME280;4197;42.130;24.746;2023-02-18T12:07:58;99838.09;;;19.28;25.01
8320;BME280;4197;42.130;24.746;2023-02-18T12:10:32;99844.69;;;19.38;25.10
8320;BME280;4197;42.130;24.746;2023-02-18T12:13:06;99838.78;;;19.43;25.35
8320;BME280;4197;42.130;24.746;2023-02-18T12:15:47;99826.88;;;19.53;25.01
8320;BME280;4197;42.130;24.746;2023-02-18T12:18:52;99817.91;;;19.49;25.54
8320;BME280;4197;42.130;24.746;2023-02-18T12:21:43;99813.91;;;19.57;25.39
8320;BME280;4197;42.130;24.746;2023-02-18T12:24:33;99809.94;;;19.66;25.49
8320;BME280;4197;42.130;24.746;2023-02-18T12:27:15;99809.03;;;19.76;25.78
8320;BME280;4197;42.130;24.746;2023-02-18T12:33:16;99799.59;;;20.18;25.55
8320;BME280;4197;42.130;24.746;2023-02-18T12:36:01;99793.41;;;20.07;25.81
8320;BME280;4197;42.130;24.746;2023-02-18T12:39:10;99807.78;;;19.88;26.10
8320;BME280;4197;42.130;24.746;2023-02-18T12:41:48;99804.69;;;19.82;26.37
8320;BME280;4197;42.130;24.746;2023-02-18T12:44:35;99806.19;;;19.90;26.40
8320;BME280;4197;42.130;24.746;2023-02-18T12:47:41;99793.81;;;20.05;26.12
8320;BME280;4197;42.130;24.746;2023-02-18T12:50:39;99800.41;;;20.15;25.81
8320;BME280;4197;42.130;24.746;2023-02-18T12:53:36;99792.31;;;20.01;25.96
8320;BME280;4197;42.130;24.746;2023-02-18T12:56:43;99781.31;;;19.97;26.19
8320;BME280;4197;42.130;24.746;2023-02-18T13:01:53;99783.78;;;19.88;26.50
8320;BME280;4197;42.130;24.746;2023-02-18T13:04:37;99778.28;;;19.88;26.20
8320;BME280;4197;42.130;24.746;2023-02-18T13:07:37;99775.19;;;19.82;26.38
8320;BME280;4197;42.130;24.746;2023-02-18T13:10:31;99774.38;;;19.86;26.77
8320;BME280;4197;42.130;24.746;2023-02-18T13:13:09;99781.81;;;19.89;26.69
8320;BME280;4197;42.130;24.746;2023-02-18T13:15:41;99768.56;;;19.76;27.08
8320;BME280;4197;42.130;24.746;2023-02-18T13:18:13;99770.84;;;19.85;27.05
8320;BME280;4197;42.130;24.746;2023-02-18T13:20:47;99761.09;;;19.77;26.91
8320;BME280;4197;42.130;24.746;2023-02-18T13:23:21;99763.78;;;19.80;27.13
8320;BME280;4197;42.130;24.746;2023-02-18T13:25:53;99766.44;;;19.91;26.95
8320;BME280;4197;42.130;24.746;2023-02-18T13:28:32;99764.84;;;19.94;27.19
8320;BME280;4197;42.130;24.746;2023-02-18T13:31:14;99768.38;;;19.94;27.47
8320;BME280;4197;42.130;24.746;2023-02-18T13:33:52;99771.56;;;19.93;27.89
8320;BME280;4197;42.130;24.746;2023-02-18T13:36:32;99771.28;;;19.80;27.85
8320;BME280;4197;42.130;24.746;2023-02-18T13:39:07;99773.75;;;19.67;27.91
8320;BME280;4197;42.130;24.746;2023-02-18T13:41:38;99773.38;;;19.61;28.32
8320;BME280;4197;42.130;24.746;2023-02-18T13:44:15;99767.44;;;19.70;28.31
8320;BME280;4197;42.130;24.746;2023-02-18T13:46:58;99765.41;;;19.78;27.95
8320;BME280;4197;42.130;24.746;2023-02-18T13:49:32;99772.88;;;19.77;28.05
8320;BME280;4197;42.130;24.746;2023-02-18T13:52:02;99766.22;;;19.75;28.01